Time;durP1;ratioP1;P1;durP2;ratioP2;P2;SDS_P1;SDS_P2;PMS_P1;PMS_P2;Temp;Humidity;BMP_temperature;BMP_pressure;BME280_temperature;BME280_humidity;BME280_pressure;Samples;Min_cycle;Max_cycle;Signal;HPM_P1;HPM_P2
2023/06/01 00:00:23;;;;;;;5.60;4.50;;;16.10;99.90;;;;;;5112685;28;20553;-83
2023/06/01 00:02:50;;;;;;;7.70;4.37;;;16.10;99.90;;;;;;5105311;28;20476;-82
2023/06/01 00:05:17;;;;;;;5.60;3.50;;;16.10;99.90;;;;;;5092098;28;20917;-82
2023/06/01 00:07:44;;;;;;;5.20;3.63;;;16.00;99.90;;;;;;5092172;28;20880;-83
2023/06/01 00:10:11;;;;;;;5.83;4.03;;;16.00;99.90;;;;;;5092862;28;20462;-83
2023/06/01 00:12:38;;;;;;;8.53;4.30;;;16.00;99.90;;;;;;5091976;28;20455;-82
2023/06/01 00:15:06;;;;;;;5.90;4.43;;;16.00;99.90;;;;;;5090846;28;20633;-82
2023/06/01 00:17:34;;;;;;;6.20;4.50;;;15.80;99.90;;;;;;5091780;28;20569;-82
2023/06/01 00:20:05;;;;;;;5.90;4.07;;;15.80;99.90;;;;;;5092407;28;20512;-83
2023/06/01 00:22:34;;;;;;;5.10;3.60;;;15.90;99.90;;;;;;5092012;28;20447;-83
2023/06/01 00:25:00;;;;;;;6.40;3.77;;;15.80;99.90;;;;;;5091968;28;20455;-82
2023/06/01 00:27:27;;;;;;;5.80;4.10;;;15.80;99.90;;;;;;5091715;28;20531;-83
2023/06/01 00:29:54;;;;;;;5.63;4.00;;;15.80;99.90;;;;;;5091804;28;20478;-83
2023/06/01 00:32:21;;;;;;;6.60;4.60;;;15.80;99.90;;;;;;5089469;28;20941;-83
2023/06/01 00:34:49;;;;;;;6.03;4.13;;;15.80;99.90;;;;;;5092157;28;20446;-83
2023/06/01 00:37:16;;;;;;;5.60;3.70;;;15.80;99.90;;;;;;5091891;28;20520;-83
2023/06/01 00:39:43;;;;;;;6.67;3.77;;;15.70;99.90;;;;;;5091839;28;20921;-82
2023/06/01 00:42:10;;;;;;;5.20;4.60;;;15.70;99.90;;;;;;5091795;28;20493;-83
2023/06/01 00:44:37;;;;;;;7.63;4.23;;;15.60;99.90;;;;;;5091226;28;20468;-82
2023/06/01 00:47:04;;;;;;;7.63;4.67;;;15.60;99.90;;;;;;5091571;28;20483;-83
2023/06/01 00:49:31;;;;;;;5.27;3.87;;;15.60;99.90;;;;;;5091870;28;20474;-83
2023/06/01 00:52:00;;;;;;;6.37;4.10;;;15.60;99.90;;;;;;5091706;28;20515;-83
2023/06/01 00:54:28;;;;;;;4.50;3.93;;;15.60;99.90;;;;;;5091354;28;20883;-83
2023/06/01 00:56:55;;;;;;;6.70;4.80;;;15.60;99.90;;;;;;5091244;28;20476;-82
2023/06/01 00:59:22;;;;;;;8.47;4.00;;;15.60;99.90;;;;;;5091320;28;20451;-82
2023/06/01 01:01:49;;;;;;;5.30;3.80;;;15.70;99.90;;;;;;5091605;28;20557;-82
2023/06/01 01:04:25;;;;;;;6.73;4.60;;;15.60;99.90;;;;;;5091509;28;20462;-82
2023/06/01 01:07:03;;;;;;;5.90;4.37;;;15.60;99.90;;;;;;5091053;28;20449;-82
2023/06/01 01:09:37;;;;;;;6.80;3.60;;;15.60;99.90;;;;;;5091945;28;20446;-82
2023/06/01 01:12:09;;;;;;;6.50;5.07;;;15.60;99.90;;;;;;5091843;28;20499;-83
2023/06/01 01:14:40;;;;;;;6.17;3.93;;;15.50;99.90;;;;;;5089775;28;20518;-82
2023/06/01 01:17:16;;;;;;;6.00;4.27;;;15.60;99.90;;;;;;5095046;28;20454;-83
2023/06/01 01:19:58;;;;;;;5.70;4.60;;;15.60;99.90;;;;;;5096260;28;20525;-82
2023/06/01 01:22:47;;;;;;;6.20;3.40;;;15.60;99.90;;;;;;5095366;28;20515;-82
2023/06/01 01:25:35;;;;;;;5.73;4.03;;;15.70;99.90;;;;;;5095483;28;20439;-83
2023/06/01 01:28:19;;;;;;;7.77;4.00;;;15.70;99.90;;;;;;5095329;28;20438;-82
2023/06/01 01:30:47;;;;;;;6.83;4.50;;;15.70;99.90;;;;;;5095647;28;20540;-83
2023/06/01 01:33:15;;;;;;;5.63;4.23;;;15.60;99.90;;;;;;5093340;28;20454;-83
2023/06/01 01:35:43;;;;;;;5.27;4.77;;;15.50;99.90;;;;;;5095515;28;20520;-83
2023/06/01 01:38:10;;;;;;;7.47;4.50;;;15.40;99.90;;;;;;5095079;28;20515;-83
2023/06/01 01:40:37;;;;;;;5.07;3.97;;;15.40;99.90;;;;;;5095109;28;20518;-82
2023/06/01 01:43:04;;;;;;;6.90;5.03;;;15.30;99.90;;;;;;5094929;28;20504;-82
2023/06/01 01:45:33;;;;;;;6.03;4.10;;;15.30;99.90;;;;;;5095451;28;20890;-82
2023/06/01 01:48:06;;;;;;;6.77;3.97;;;15.30;99.90;;;;;;5094995;28;20517;-82
2023/06/01 01:50:38;;;;;;;5.33;3.90;;;14.80;99.90;;;;;;5095169;28;20544;-82
2023/06/01 01:53:09;;;;;;;7.17;4.80;;;14.80;99.90;;;;;;5094491;28;20440;-82
2023/06/01 01:55:37;;;;;;;5.63;3.90;;;14.80;99.90;;;;;;5095540;28;20440;-82
2023/06/01 01:58:04;;;;;;;5.97;4.53;;;14.80;99.90;;;;;;5094711;28;20569;-82
2023/06/01 02:00:34;;;;;;;6.10;4.13;;;14.90;99.90;;;;;;5095028;28;20875;-82
2023/06/01 02:03:01;;;;;;;6.77;4.80;;;14.90;99.90;;;;;;5094652;28;20709;-82
2023/06/01 02:05:28;;;;;;;7.30;4.20;;;14.90;99.90;;;;;;5094814;28;20506;-82
2023/06/01 02:07:55;;;;;;;5.60;3.60;;;14.90;99.90;;;;;;5094394;28;20471;-82
2023/06/01 02:10:22;;;;;;;6.40;4.13;;;14.80;99.90;;;;;;5094811;28;20491;-82
2023/06/01 02:12:49;;;;;;;7.40;4.60;;;14.30;99.90;;;;;;5094180;28;20979;-82
2023/06/01 02:15:16;;;;;;;5.30;4.17;;;14.30;99.90;;;;;;5093083;28;20449;-82
2023/06/01 02:17:44;;;;;;;9.73;4.50;;;14.50;99.90;;;;;;5094175;28;20557;-82
2023/06/01 02:20:12;;;;;;;7.50;4.03;;;14.70;99.90;;;;;;5094815;28;20467;-82
2023/06/01 02:22:38;;;;;;;6.40;3.90;;;14.80;99.90;;;;;;5094010;28;20535;-82
2023/06/01 02:25:06;;;;;;;5.20;3.83;;;15.00;99.90;;;;;;5094451;28;20537;-82
2023/06/01 02:27:33;;;;;;;4.83;4.10;;;15.00;99.90;;;;;;5092750;28;20794;-82
2023/06/01 02:30:00;;;;;;;6.07;4.40;;;15.10;99.90;;;;;;5093407;28;20522;-82
2023/06/01 02:32:30;;;;;;;4.60;3.63;;;15.00;99.90;;;;;;5090641;28;20450;-82
2023/06/01 02:34:58;;;;;;;6.37;4.00;;;14.90;99.90;;;;;;5093277;28;20458;-83
2023/06/01 02:37:25;;;;;;;5.37;4.43;;;14.90;99.90;;;;;;5092870;28;20497;-83
2023/06/01 02:39:52;;;;;;;6.50;4.03;;;14.90;99.90;;;;;;5093042;28;20515;-82
2023/06/01 02:42:18;;;;;;;5.23;4.17;;;14.80;99.90;;;;;;5092518;28;20775;-82
2023/06/01 02:44:45;;;;;;;8.00;4.87;;;14.80;99.90;;;;;;5094067;28;20540;-82
2023/06/01 02:47:12;;;;;;;4.60;3.83;;;14.60;99.90;;;;;;5093568;28;20985;-82
2023/06/01 02:49:39;;;;;;;6.93;4.67;;;14.60;99.90;;;;;;5094278;28;20522;-82
2023/06/01 02:52:08;;;;;;;5.80;4.00;;;14.60;99.90;;;;;;5093764;28;20519;-82
2023/06/01 02:54:35;;;;;;;5.30;3.70;;;14.60;99.90;;;;;;5093775;28;20478;-82
2023/06/01 02:57:02;;;;;;;6.30;4.53;;;14.60;99.90;;;;;;5093614;28;20440;-82
2023/06/01 02:59:29;;;;;;;5.97;4.53;;;14.60;99.90;;;;;;5093913;28;20480;-82
2023/06/01 03:01:55;;;;;;;7.30;4.57;;;14.60;99.90;;;;;;5093727;28;20552;-82
2023/06/01 03:04:22;;;;;;;5.23;4.47;;;14.60;99.90;;;;;;5093541;28;20533;-82
2023/06/01 03:06:49;;;;;;;8.80;4.83;;;14.60;99.90;;;;;;5093386;28;20905;-82
2023/06/01 03:09:18;;;;;;;8.00;5.17;;;14.70;99.90;;;;;;5094141;28;20518;-82
2023/06/01 03:11:44;;;;;;;6.30;3.83;;;14.70;99.90;;;;;;5093200;28;20470;-82
2023/06/01 03:14:11;;;;;;;4.83;3.60;;;14.70;99.90;;;;;;5091771;28;20538;-82
2023/06/01 03:16:38;;;;;;;4.97;4.10;;;14.60;99.90;;;;;;5093292;28;20446;-82
2023/06/01 03:19:06;;;;;;;5.50;4.00;;;14.60;99.90;;;;;;5093955;28;20472;-82
2023/06/01 03:21:33;;;;;;;8.40;4.80;;;14.60;99.90;;;;;;5099793;28;20467;-82
2023/06/01 03:24:00;;;;;;;5.13;4.27;;;14.60;99.90;;;;;;5109191;28;20444;-82
2023/06/01 03:26:29;;;;;;;6.63;4.80;;;14.60;99.90;;;;;;5093010;28;20537;-82
2023/06/01 03:28:56;;;;;;;6.07;4.00;;;14.60;99.90;;;;;;5093184;28;20515;-82
2023/06/01 03:31:23;;;;;;;7.20;4.67;;;14.50;99.90;;;;;;5092939;28;20465;-82
2023/06/01 03:33:50;;;;;;;5.87;4.20;;;14.50;99.90;;;;;;5091055;28;20937;-82
2023/06/01 03:36:17;;;;;;;5.97;4.47;;;14.50;99.90;;;;;;5092663;28;20449;-82
2023/06/01 03:38:44;;;;;;;6.30;4.70;;;14.50;99.90;;;;;;5091978;28;21051;-82
2023/06/01 03:41:10;;;;;;;5.70;3.90;;;14.50;99.90;;;;;;5092912;28;20889;-82
2023/06/01 03:43:39;;;;;;;5.47;4.80;;;14.50;99.90;;;;;;5092502;28;20493;-83
2023/06/01 03:46:06;;;;;;;6.73;4.40;;;14.60;99.90;;;;;;5092532;28;21010;-83
2023/06/01 03:48:33;;;;;;;9.17;4.20;;;14.70;99.90;;;;;;5092950;28;20443;-82
2023/06/01 03:51:00;;;;;;;7.30;3.90;;;14.70;99.90;;;;;;5092295;28;20497;-83
2023/06/01 03:53:27;;;;;;;5.90;3.87;;;14.60;99.90;;;;;;5092585;28;20479;-83
2023/06/01 03:55:54;;;;;;;5.00;4.23;;;14.50;99.90;;;;;;5092491;28;20863;-82
2023/06/01 03:58:21;;;;;;;5.10;4.03;;;14.50;99.90;;;;;;5092577;28;21000;-82
2023/06/01 04:00:50;;;;;;;5.30;3.80;;;14.40;99.90;;;;;;5092350;28;21047;-82
2023/06/01 04:03:21;;;;;;;4.50;3.87;;;14.40;99.90;;;;;;5091793;28;20453;-82
2023/06/01 04:05:50;;;;;;;5.40;3.80;;;14.30;99.90;;;;;;5092788;28;20441;-82
2023/06/01 04:08:19;;;;;;;6.93;4.33;;;14.40;99.90;;;;;;5092326;28;20436;-83
2023/06/01 04:10:46;;;;;;;5.17;3.27;;;14.30;99.90;;;;;;5092405;28;20502;-82
2023/06/01 04:13:16;;;;;;;10.53;6.00;;;14.30;99.90;;;;;;5091442;28;20489;-82
2023/06/01 04:15:43;;;;;;;7.47;4.30;;;14.30;99.90;;;;;;5092049;28;20532;-82
2023/06/01 04:18:11;;;;;;;5.60;4.20;;;14.30;99.90;;;;;;5091956;28;20447;-82
2023/06/01 04:20:38;;;;;;;5.47;3.93;;;14.30;99.90;;;;;;5092269;28;21037;-82
2023/06/01 04:23:05;;;;;;;5.43;4.17;;;14.30;99.90;;;;;;5091752;28;20524;-83
2023/06/01 04:25:32;;;;;;;5.00;3.90;;;14.20;99.90;;;;;;5092271;28;20944;-82
2023/06/01 04:27:59;;;;;;;6.23;4.30;;;14.00;99.90;;;;;;5091719;28;20449;-82
2023/06/01 04:30:26;;;;;;;7.70;4.17;;;13.90;99.90;;;;;;5092291;28;20502;-82
2023/06/01 04:32:53;;;;;;;9.07;5.23;;;14.00;99.90;;;;;;5089867;28;20540;-82
2023/06/01 04:35:21;;;;;;;5.90;4.10;;;14.10;99.90;;;;;;5092172;28;20446;-82
2023/06/01 04:37:49;;;;;;;5.30;3.77;;;14.10;99.90;;;;;;5091649;28;20477;-82
2023/06/01 04:40:16;;;;;;;5.67;4.40;;;14.10;99.90;;;;;;5092020;28;20541;-82
2023/06/01 04:42:48;;;;;;;7.47;4.53;;;14.00;99.90;;;;;;5091868;28;20451;-82
2023/06/01 04:45:16;;;;;;;5.13;4.00;;;14.10;99.90;;;;;;5091639;28;20505;-82
2023/06/01 04:47:46;;;;;;;5.70;3.97;;;14.20;99.90;;;;;;5091700;28;20546;-82
2023/06/01 04:50:15;;;;;;;8.67;3.67;;;14.20;99.90;;;;;;5092361;28;20459;-82
2023/06/01 04:52:44;;;;;;;6.90;4.03;;;14.20;99.90;;;;;;5092241;28;21028;-82
2023/06/01 04:55:13;;;;;;;6.30;4.50;;;14.30;99.90;;;;;;5099254;28;20447;-82
2023/06/01 04:57:42;;;;;;;6.67;4.70;;;14.20;99.90;;;;;;5102048;28;20513;-83
2023/06/01 05:00:12;;;;;;;5.93;4.30;;;14.20;99.90;;;;;;5100377;28;20519;-82
2023/06/01 05:02:39;;;;;;;6.90;4.50;;;14.20;99.90;;;;;;5096084;28;20549;-82
2023/06/01 05:05:07;;;;;;;4.43;3.80;;;14.20;99.90;;;;;;5091368;28;20449;-83
2023/06/01 05:07:34;;;;;;;5.17;3.87;;;14.20;99.90;;;;;;5099459;28;20443;-85
2023/06/01 05:10:05;;;;;;;7.20;3.87;;;14.30;99.90;;;;;;5104613;28;20467;-85
2023/06/01 05:12:32;;;;;;;5.50;3.90;;;14.30;99.90;;;;;;5111893;28;20462;-83
2023/06/01 05:15:00;;;;;;;5.60;4.20;;;14.40;99.90;;;;;;5111041;28;20481;-84
2023/06/01 05:17:27;;;;;;;7.90;4.57;;;14.40;99.90;;;;;;5105048;28;20476;-83
2023/06/01 05:19:54;;;;;;;6.67;4.50;;;14.30;99.90;;;;;;5100796;28;20827;-83
2023/06/01 05:22:21;;;;;;;7.27;4.03;;;14.20;99.90;;;;;;5102126;28;20530;-84
2023/06/01 05:24:48;;;;;;;6.53;4.30;;;14.20;99.90;;;;;;5102183;28;20475;-84
2023/06/01 05:27:16;;;;;;;7.70;4.80;;;14.10;99.90;;;;;;5100053;28;20877;-84
2023/06/01 05:29:43;;;;;;;6.20;4.97;;;14.00;99.90;;;;;;5103540;28;20518;-83
2023/06/01 05:32:10;;;;;;;6.80;4.43;;;14.00;99.90;;;;;;5110148;28;21434;-83
2023/06/01 05:34:37;;;;;;;6.77;4.40;;;14.10;99.90;;;;;;5111185;28;20450;-83
2023/06/01 05:37:05;;;;;;;6.30;4.33;;;14.10;99.90;;;;;;5112075;28;20485;-85
2023/06/01 05:39:32;;;;;;;6.83;4.20;;;14.20;99.90;;;;;;5113040;28;20553;-85
2023/06/01 05:41:59;;;;;;;9.03;5.30;;;14.30;99.90;;;;;;5110508;28;20515;-85
2023/06/01 05:44:27;;;;;;;6.80;5.30;;;14.40;99.90;;;;;;5111708;28;20879;-85
2023/06/01 05:46:54;;;;;;;7.50;4.77;;;14.40;99.90;;;;;;5112456;28;20479;-84
2023/06/01 05:49:21;;;;;;;7.20;4.50;;;14.40;99.90;;;;;;5112328;28;21005;-86
2023/06/01 05:51:48;;;;;;;7.27;4.87;;;14.40;99.90;;;;;;5112234;28;20491;-84
2023/06/01 05:54:15;;;;;;;7.03;4.27;;;14.40;99.90;;;;;;5097479;28;20868;-83
2023/06/01 05:56:42;;;;;;;7.07;5.17;;;14.50;99.90;;;;;;5111509;28;20543;-85
2023/06/01 05:59:09;;;;;;;9.60;4.73;;;14.50;99.90;;;;;;5112039;28;20990;-84
2023/06/01 06:01:37;;;;;;;5.73;4.30;;;14.50;99.90;;;;;;5109887;28;20523;-85
2023/06/01 06:04:04;;;;;;;4.33;3.90;;;14.70;99.90;;;;;;5115055;28;20486;-84
2023/06/01 06:06:31;;;;;;;6.70;4.57;;;14.80;99.90;;;;;;5114906;28;20439;-84
2023/06/01 06:08:58;;;;;;;5.00;4.03;;;15.00;99.90;;;;;;5115426;28;20562;-84
2023/06/01 06:11:26;;;;;;;7.23;4.40;;;15.30;99.90;;;;;;5115318;28;20498;-84
2023/06/01 06:13:52;;;;;;;5.43;3.67;;;15.50;99.90;;;;;;5114213;28;20466;-84
2023/06/01 06:16:19;;;;;;;8.23;4.33;;;15.60;99.90;;;;;;5115288;28;20862;-84
2023/06/01 06:18:48;;;;;;;7.20;4.20;;;15.70;99.90;;;;;;5110461;28;20527;-85
2023/06/01 06:21:15;;;;;;;6.07;4.60;;;15.80;99.90;;;;;;5114867;28;20452;-85
2023/06/01 06:23:42;;;;;;;6.17;3.83;;;15.90;99.90;;;;;;5111401;28;20487;-84
2023/06/01 06:26:09;;;;;;;7.67;4.70;;;15.90;99.90;;;;;;5106534;28;20446;-84
2023/06/01 06:28:36;;;;;;;6.10;4.13;;;15.90;99.90;;;;;;5115120;28;20440;-84
2023/06/01 06:31:03;;;;;;;5.87;5.27;;;15.90;99.90;;;;;;5108376;28;20453;-84
2023/06/01 06:33:30;;;;;;;7.07;4.83;;;15.80;99.90;;;;;;5110062;28;20486;-84
2023/06/01 06:35:58;;;;;;;9.03;4.90;;;15.80;99.90;;;;;;5114785;28;20452;-84
2023/06/01 06:38:25;;;;;;;6.23;4.87;;;15.90;99.90;;;;;;5114650;28;20542;-85
2023/06/01 06:40:52;;;;;;;5.13;4.53;;;15.80;99.90;;;;;;5102726;28;20495;-84
2023/06/01 06:43:19;;;;;;;6.90;4.10;;;15.80;99.90;;;;;;5094079;28;20938;-84
2023/06/01 06:45:46;;;;;;;7.03;4.43;;;15.80;99.90;;;;;;5094137;28;20440;-85
2023/06/01 06:48:13;;;;;;;5.23;4.40;;;15.90;99.90;;;;;;5093625;28;20483;-86
2023/06/01 06:50:43;;;;;;;5.83;4.37;;;15.80;99.90;;;;;;5094273;28;20503;-85
2023/06/01 06:53:12;;;;;;;6.50;4.70;;;16.00;99.90;;;;;;5111800;28;20531;-84
2023/06/01 06:55:39;;;;;;;5.30;3.73;;;16.10;99.90;;;;;;5103635;28;20429;-85
2023/06/01 06:58:06;;;;;;;6.10;4.53;;;16.30;99.90;;;;;;5106466;28;20475;-85
2023/06/01 07:00:33;;;;;;;9.90;5.73;;;16.30;99.90;;;;;;5105715;28;20493;-85
2023/06/01 07:03:00;;;;;;;6.07;4.20;;;16.30;99.90;;;;;;5112141;28;20457;-84
2023/06/01 07:05:27;;;;;;;6.57;4.87;;;16.50;99.90;;;;;;5111190;28;20471;-84
2023/06/01 07:07:54;;;;;;;5.40;4.57;;;16.60;99.90;;;;;;5111788;28;20521;-85
2023/06/01 07:10:22;;;;;;;7.40;4.50;;;16.70;99.90;;;;;;5112452;28;20554;-84
2023/06/01 07:12:49;;;;;;;6.40;4.43;;;16.80;99.90;;;;;;5113735;28;20519;-84
2023/06/01 07:15:17;;;;;;;5.50;4.60;;;16.90;99.90;;;;;;5112973;28;20527;-84
2023/06/01 07:17:44;;;;;;;7.10;4.40;;;17.00;99.90;;;;;;5113502;28;20435;-85
2023/06/01 07:20:11;;;;;;;5.77;4.60;;;17.10;99.90;;;;;;5112277;28;20576;-85
2023/06/01 07:22:38;;;;;;;7.00;4.40;;;17.20;99.90;;;;;;5105447;28;20814;-84
2023/06/01 07:25:07;;;;;;;5.90;4.40;;;17.20;99.90;;;;;;5107045;28;20532;-85
2023/06/01 07:27:36;;;;;;;6.93;4.93;;;17.30;99.90;;;;;;5105174;28;20447;-84
2023/06/01 07:30:03;;;;;;;7.90;4.37;;;17.30;99.90;;;;;;5113790;28;20511;-84
2023/06/01 07:32:30;;;;;;;6.30;4.80;;;17.40;99.90;;;;;;5111495;28;20460;-85
2023/06/01 07:34:59;;;;;;;7.70;4.37;;;17.30;99.90;;;;;;5105346;28;20472;-84
2023/06/01 07:37:26;;;;;;;7.93;4.50;;;17.30;99.90;;;;;;5113142;28;20441;-84
2023/06/01 07:39:53;;;;;;;5.57;4.40;;;17.40;99.90;;;;;;5113298;28;20481;-84
2023/06/01 07:42:20;;;;;;;5.97;4.40;;;17.40;99.90;;;;;;5113284;28;20495;-85
2023/06/01 07:44:49;;;;;;;5.50;4.23;;;17.50;99.90;;;;;;5113827;28;20532;-84
2023/06/01 07:47:16;;;;;;;6.47;4.90;;;17.60;99.90;;;;;;5113339;28;20938;-84
2023/06/01 07:49:43;;;;;;;6.03;4.33;;;17.70;99.90;;;;;;5113517;28;20446;-85
2023/06/01 07:52:10;;;;;;;5.90;4.70;;;17.80;99.90;;;;;;5113139;28;20912;-84
2023/06/01 07:54:37;;;;;;;4.47;3.30;;;17.90;99.90;;;;;;5113092;28;20481;-85
2023/06/01 07:57:05;;;;;;;8.40;5.20;;;18.00;99.90;;;;;;5113027;28;20430;-84
2023/06/01 07:59:32;;;;;;;5.87;4.50;;;18.10;99.90;;;;;;5104873;28;20565;-84
2023/06/01 08:02:00;;;;;;;6.70;4.33;;;18.30;99.90;;;;;;5113020;28;21059;-85
2023/06/01 08:04:33;;;;;;;6.57;4.57;;;18.40;99.90;;;;;;5112768;28;20523;-84
2023/06/01 08:07:02;;;;;;;6.27;5.10;;;18.50;99.90;;;;;;5107693;28;20461;-85
2023/06/01 08:09:30;;;;;;;6.37;4.30;;;18.50;99.90;;;;;;5108407;28;20506;-85
2023/06/01 08:11:57;;;;;;;5.30;4.40;;;18.30;99.90;;;;;;5103815;28;20460;-84
2023/06/01 08:14:24;;;;;;;5.90;4.40;;;18.10;99.90;;;;;;5108663;28;20497;-85
2023/06/01 08:16:52;;;;;;;5.10;4.33;;;18.10;99.90;;;;;;5102526;28;20521;-84
2023/06/01 08:19:20;;;;;;;5.20;4.37;;;18.10;99.90;;;;;;5102219;28;20454;-84
2023/06/01 08:21:47;;;;;;;6.40;4.50;;;18.10;99.90;;;;;;5106340;28;20554;-85
2023/06/01 08:24:15;;;;;;;6.07;4.43;;;18.10;99.90;;;;;;5108449;28;20524;-85
2023/06/01 08:26:42;;;;;;;7.30;4.30;;;18.10;99.90;;;;;;5098572;28;20826;-84
2023/06/01 08:29:09;;;;;;;7.60;4.93;;;18.20;99.90;;;;;;5106316;28;20439;-84
2023/06/01 08:31:38;;;;;;;6.00;4.27;;;18.20;99.90;;;;;;5110852;28;20999;-85
2023/06/01 08:34:05;;;;;;;6.50;4.43;;;18.10;99.90;;;;;;5110858;28;20532;-85
2023/06/01 08:36:33;;;;;;;5.47;3.73;;;18.20;99.90;;;;;;5111974;28;20453;-85
2023/06/01 08:39:00;;;;;;;6.60;5.07;;;18.40;99.90;;;;;;5112503;28;20962;-85
2023/06/01 08:41:36;;;;;;;5.63;4.20;;;18.50;99.90;;;;;;5112350;28;20506;-85
2023/06/01 08:44:05;;;;;;;5.50;4.50;;;18.60;99.90;;;;;;5112577;28;20602;-85
2023/06/01 08:46:34;;;;;;;8.93;4.17;;;18.80;99.90;;;;;;5112186;28;20446;-84
2023/06/01 08:49:01;;;;;;;5.77;4.73;;;18.80;99.90;;;;;;5112526;28;20464;-84
2023/06/01 08:51:33;;;;;;;7.37;4.77;;;18.90;99.90;;;;;;5110821;28;20904;-85
2023/06/01 08:54:03;;;;;;;6.70;4.47;;;19.00;99.90;;;;;;5112116;28;20487;-85
2023/06/01 08:56:31;;;;;;;4.90;4.00;;;19.20;99.90;;;;;;5112374;28;20482;-84
2023/06/01 08:58:59;;;;;;;6.03;4.07;;;19.20;99.90;;;;;;5112273;28;20526;-85
2023/06/01 09:01:26;;;;;;;6.80;4.90;;;19.40;99.90;;;;;;5111783;28;20913;-85
2023/06/01 09:03:53;;;;;;;5.80;3.97;;;19.40;99.90;;;;;;5110548;28;20533;-85
2023/06/01 09:06:21;;;;;;;7.60;4.67;;;19.50;99.90;;;;;;5111207;28;20451;-85
2023/06/01 09:08:48;;;;;;;5.90;4.63;;;19.60;99.90;;;;;;5110961;28;20475;-85
2023/06/01 09:11:16;;;;;;;6.70;4.47;;;19.60;99.90;;;;;;5110938;28;20778;-85
2023/06/01 09:13:43;;;;;;;6.17;4.83;;;19.60;99.90;;;;;;5108950;28;20482;-84
2023/06/01 09:16:11;;;;;;;10.17;5.10;;;19.60;99.90;;;;;;5111830;28;20527;-85
2023/06/01 09:18:51;;;;;;;6.73;5.00;;;19.50;99.90;;;;;;5111852;28;20482;-84
2023/06/01 09:21:18;;;;;;;8.40;4.40;;;19.60;99.90;;;;;;5111714;28;20570;-84
2023/06/01 09:23:45;;;;;;;5.90;4.60;;;19.50;99.90;;;;;;5110677;28;20510;-86
2023/06/01 09:26:13;;;;;;;7.43;4.57;;;19.60;99.90;;;;;;5110794;28;20465;-85
2023/06/01 09:28:58;;;;;;;7.30;5.37;;;19.60;99.90;;;;;;5110958;28;20490;-85
2023/06/01 09:31:41;;;;;;;6.50;4.63;;;19.60;99.90;;;;;;5111496;28;20461;-85
2023/06/01 09:34:11;;;;;;;5.20;4.33;;;19.60;99.90;;;;;;5108935;28;20532;-84
2023/06/01 09:36:38;;;;;;;7.03;5.07;;;19.70;99.90;;;;;;5112272;28;20447;-85
2023/06/01 09:39:07;;;;;;;7.13;5.17;;;19.70;99.90;;;;;;5114914;28;20805;-85
2023/06/01 09:41:50;;;;;;;8.93;5.33;;;19.70;99.90;;;;;;5114652;28;20527;-85
2023/06/01 09:44:29;;;;;;;6.37;4.33;;;19.70;99.90;;;;;;5113416;28;20449;-85
2023/06/01 09:46:58;;;;;;;5.33;4.40;;;19.70;99.90;;;;;;5115855;28;20783;-85
2023/06/01 09:49:26;;;;;;;6.90;4.67;;;19.60;99.90;;;;;;5115379;27;20478;-85
2023/06/01 09:51:54;;;;;;;7.00;4.17;;;19.70;99.90;;;;;;5116047;28;20461;-85
2023/06/01 09:54:29;;;;;;;8.53;5.60;;;19.70;99.90;;;;;;5115378;28;20471;-85
2023/06/01 09:56:56;;;;;;;7.00;4.77;;;19.80;99.90;;;;;;5115506;28;20442;-85
2023/06/01 09:59:28;;;;;;;5.83;4.83;;;19.80;99.90;;;;;;5115633;28;20505;-84
2023/06/01 10:01:57;;;;;;;5.70;4.90;;;19.80;99.90;;;;;;5113950;28;20857;-84
2023/06/01 10:04:26;;;;;;;6.57;4.80;;;19.90;99.90;;;;;;5115613;28;20442;-84
2023/06/01 10:06:54;;;;;;;10.43;5.63;;;20.00;99.90;;;;;;5115832;28;20438;-85
2023/06/01 10:09:24;;;;;;;7.00;5.60;;;20.00;99.90;;;;;;5115569;28;20435;-86
2023/06/01 10:11:53;;;;;;;6.90;5.13;;;20.00;99.90;;;;;;5116268;28;20484;-83
2023/06/01 10:14:21;;;;;;;6.43;5.47;;;20.00;99.90;;;;;;5114889;28;20446;-85
2023/06/01 10:16:51;;;;;;;7.80;6.43;;;20.10;99.90;;;;;;5116321;28;20447;-85
2023/06/01 10:19:19;;;;;;;10.27;6.80;;;20.20;99.90;;;;;;5115321;28;20454;-85
2023/06/01 10:21:47;;;;;;;7.30;4.80;;;20.40;99.90;;;;;;5112872;28;20488;-85
2023/06/01 10:24:15;;;;;;;7.23;6.07;;;20.40;99.90;;;;;;5115602;28;20502;-85
2023/06/01 10:26:52;;;;;;;9.23;5.97;;;20.50;99.90;;;;;;5115604;28;20445;-85
2023/06/01 10:29:20;;;;;;;8.70;6.37;;;20.60;99.90;;;;;;5116064;28;20464;-85
2023/06/01 10:31:47;;;;;;;7.57;6.03;;;20.70;99.90;;;;;;5116041;28;20490;-85
2023/06/01 10:34:15;;;;;;;7.07;5.60;;;20.70;99.90;;;;;;5115007;28;20450;-86
2023/06/01 10:37:11;;;;;;;6.70;5.30;;;20.80;99.90;;;;;;5117089;28;20797;-85
2023/06/01 10:39:38;;;;;;;8.47;6.30;;;20.80;99.90;;;;;;5117957;28;20458;-85
2023/06/01 10:42:39;;;;;;;5.60;4.87;;;20.90;99.90;;;;;;5112846;28;20554;-85
2023/06/01 10:45:09;;;;;;;7.87;5.50;;;21.00;99.90;;;;;;5116882;28;20420;-84
2023/06/01 10:47:49;;;;;;;10.67;5.90;;;21.10;99.90;;;;;;5094221;28;20523;-83
2023/06/01 10:50:20;;;;;;;8.07;6.20;;;21.10;99.90;;;;;;5097107;28;20459;-84
2023/06/01 10:52:48;;;;;;;8.33;7.10;;;21.10;99.90;;;;;;5094879;28;20467;-86
2023/06/01 10:55:23;;;;;;;7.23;5.80;;;21.20;99.90;;;;;;5094558;28;20436;-82
2023/06/01 10:57:50;;;;;;;6.27;5.47;;;21.10;99.90;;;;;;5094066;28;20443;-82
2023/06/01 11:00:20;;;;;;;9.73;6.17;;;21.10;99.90;;;;;;5094516;28;20463;-82
2023/06/01 11:02:55;;;;;;;6.63;5.73;;;21.20;99.90;;;;;;5092320;28;20535;-83
2023/06/01 11:05:46;;;;;;;6.33;4.60;;;21.20;99.90;;;;;;5094036;28;20522;-83
2023/06/01 11:08:50;;;;;;;7.23;5.27;;;21.20;99.90;;;;;;5092936;28;20455;-83
2023/06/01 11:11:20;;;;;;;11.87;5.60;;;21.30;99.90;;;;;;5093284;28;20943;-83
2023/06/01 11:14:13;;;;;;;7.93;5.80;;;21.30;99.90;;;;;;5092415;28;21011;-83
2023/06/01 11:16:40;;;;;;;8.40;6.30;;;21.40;99.90;;;;;;5105536;28;20450;-83
2023/06/01 11:19:08;;;;;;;8.77;6.03;;;21.60;99.90;;;;;;5106534;28;20442;-83
2023/06/01 11:21:40;;;;;;;5.03;4.23;;;21.50;99.90;;;;;;5107873;28;20604;-83
2023/06/01 11:24:09;;;;;;;6.43;4.47;;;21.50;99.90;;;;;;5110153;28;20452;-83
2023/06/01 11:26:38;;;;;;;5.03;4.37;;;21.60;99.90;;;;;;5109319;28;20477;-83
2023/06/01 11:29:13;;;;;;;6.93;6.23;;;21.60;99.90;;;;;;5108608;28;20874;-83
2023/06/01 11:31:43;;;;;;;7.57;5.47;;;21.60;99.90;;;;;;5105622;28;20485;-83
2023/06/01 11:34:12;;;;;;;7.00;5.40;;;21.70;99.90;;;;;;5112320;27;20947;-83
2023/06/01 11:36:47;;;;;;;7.47;5.30;;;21.70;99.90;;;;;;5113280;28;20438;-85
2023/06/01 11:39:20;;;;;;;5.67;4.03;;;21.80;99.90;;;;;;5114018;28;20543;-82
2023/06/01 11:41:47;;;;;;;6.80;6.10;;;21.80;99.90;;;;;;5113927;28;20482;-83
2023/06/01 11:44:14;;;;;;;7.37;5.83;;;21.90;99.90;;;;;;5113072;28;20502;-83
2023/06/01 11:46:54;;;;;;;6.90;6.20;;;22.00;99.90;;;;;;5113597;28;20534;-83
2023/06/01 11:49:21;;;;;;;6.60;5.63;;;22.00;99.90;;;;;;5114024;28;20469;-83
2023/06/01 11:51:51;;;;;;;5.70;4.80;;;22.00;99.90;;;;;;5111355;28;20475;-83
2023/06/01 11:54:23;;;;;;;7.27;6.33;;;22.00;99.90;;;;;;5107564;28;20971;-83
2023/06/01 11:56:51;;;;;;;6.53;5.63;;;22.10;99.90;;;;;;5104603;28;20439;-83
2023/06/01 11:59:19;;;;;;;9.30;5.03;;;22.20;99.90;;;;;;5104069;28;20450;-83
2023/06/01 12:01:47;;;;;;;8.13;5.70;;;22.20;99.90;;;;;;5094394;28;20547;-83
2023/06/01 12:04:14;;;;;;;8.57;6.60;;;22.20;99.90;;;;;;5092830;28;20463;-83
2023/06/01 12:06:43;;;;;;;6.90;5.53;;;22.20;99.90;;;;;;5092447;28;20475;-84
2023/06/01 12:09:12;;;;;;;5.63;4.83;;;22.20;99.90;;;;;;5099939;28;20453;-83
2023/06/01 12:11:40;;;;;;;7.87;7.07;;;22.20;99.90;;;;;;5092009;28;20497;-83
2023/06/01 12:14:08;;;;;;;9.00;6.23;;;22.40;99.90;;;;;;5090735;28;20495;-83
2023/06/01 12:16:55;;;;;;;7.97;6.20;;;22.30;99.90;;;;;;5092816;28;20448;-83
2023/06/01 12:19:22;;;;;;;10.60;6.60;;;22.30;99.90;;;;;;5092365;28;20480;-83
2023/06/01 12:21:51;;;;;;;7.23;6.27;;;22.30;99.90;;;;;;5092468;28;21016;-84
2023/06/01 12:24:26;;;;;;;9.77;7.13;;;22.40;99.90;;;;;;5092438;28;20447;-83
2023/06/01 12:26:53;;;;;;;7.17;5.13;;;22.30;99.90;;;;;;5092277;28;20447;-83
2023/06/01 12:29:35;;;;;;;6.03;5.00;;;22.40;99.90;;;;;;5092911;28;20500;-83
2023/06/01 12:32:03;;;;;;;8.20;5.43;;;22.40;99.90;;;;;;5095660;28;20467;-83
2023/06/01 12:34:30;;;;;;;6.60;5.03;;;22.50;99.90;;;;;;5104309;28;20474;-84
2023/06/01 12:36:57;;;;;;;6.83;5.20;;;22.50;99.90;;;;;;5112980;28;20446;-82
2023/06/01 12:39:36;;;;;;;5.43;4.27;;;22.60;99.90;;;;;;5113360;28;20439;-84
2023/06/01 12:42:04;;;;;;;5.73;4.23;;;22.70;99.90;;;;;;5109226;28;20490;-84
2023/06/01 12:44:33;;;;;;;6.03;4.70;;;22.80;99.90;;;;;;5103067;28;20454;-83
2023/06/01 12:47:02;;;;;;;5.70;4.30;;;22.90;99.90;;;;;;5103970;28;20481;-83
2023/06/01 12:49:29;;;;;;;5.77;5.10;;;23.00;99.90;;;;;;5105172;28;20446;-83
2023/06/01 12:51:56;;;;;;;6.57;5.00;;;23.00;99.90;;;;;;5103012;28;20452;-83
2023/06/01 12:54:23;;;;;;;5.70;4.60;;;23.10;99.90;;;;;;5105695;28;20518;-83